Time;durP1;ratioP1;P1;durP2;ratioP2;P2;SDS_P1;SDS_P2;PMS_P1;PMS_P2;Temp;Humidity;BMP_temperature;BMP_pressure;BME280_temperature;BME280_humidity;BME280_pressure;Samples;Min_cycle;Max_cycle;Signal;HPM_P1;HPM_P2
2021/05/12 00:00:41;;;;;;;2.87;0.23;;;15.90;59.00;;;;;;4983455;28;20561;-81
2021/05/12 00:03:07;;;;;;;0.60;0.10;;;15.90;59.20;;;;;;4998709;28;20484;-80
2021/05/12 00:05:32;;;;;;;1.20;0.40;;;16.00;59.50;;;;;;4990784;28;20026;-81
2021/05/12 00:07:58;;;;;;;1.27;0.20;;;16.00;59.70;;;;;;4980248;28;20249;-80
2021/05/12 00:10:25;;;;;;;2.77;0.20;;;16.00;59.90;;;;;;5007206;28;20034;-80
2021/05/12 00:12:52;;;;;;;0.10;0.00;;;16.00;60.10;;;;;;4998541;28;20042;-80
2021/05/12 00:15:20;;;;;;;0.60;0.00;;;16.00;60.00;;;;;;4992230;28;20118;-80
2021/05/12 00:17:49;;;;;;;2.33;0.20;;;15.90;59.40;;;;;;4974290;28;20841;-80
2021/05/12 00:20:19;;;;;;;0.30;0.00;;;15.80;59.60;;;;;;4975108;28;20114;-80
2021/05/12 00:23:38;;;;;;;0.43;0.07;;;15.80;59.60;;;;;;4998097;28;20077;-80
2021/05/12 00:25:33;;;;;;;1.20;0.00;;;15.80;59.30;;;;;;4987812;28;20081;-80
2021/05/12 00:27:59;;;;;;;4.23;0.10;;;15.80;59.10;;;;;;4989684;28;20435;-81
2021/05/12 00:30:25;;;;;;;0.00;0.00;;;15.80;59.30;;;;;;4997577;28;20023;-80
2021/05/12 00:32:51;;;;;;;0.30;0.20;;;15.70;59.90;;;;;;4989886;28;20031;-81
2021/05/12 00:35:17;;;;;;;0.93;0.10;;;15.60;60.40;;;;;;4991597;28;20034;-80
2021/05/12 00:37:43;;;;;;;1.13;0.27;;;15.60;60.90;;;;;;5008022;28;20037;-80
2021/05/12 00:40:12;;;;;;;1.50;0.10;;;15.50;61.20;;;;;;4993039;28;20173;-80
2021/05/12 00:42:39;;;;;;;0.50;0.27;;;15.50;61.60;;;;;;5000172;28;20068;-80
2021/05/12 00:45:06;;;;;;;0.50;0.10;;;15.60;61.20;;;;;;4992529;28;20084;-81
2021/05/12 00:47:33;;;;;;;4.77;0.10;;;15.70;61.00;;;;;;5008883;28;20514;-81
2021/05/12 00:50:00;;;;;;;2.30;0.20;;;15.70;60.70;;;;;;4996046;28;20023;-80
2021/05/12 00:52:26;;;;;;;1.10;0.10;;;15.70;60.80;;;;;;5004239;28;20503;-80
2021/05/12 00:54:53;;;;;;;2.30;0.10;;;15.60;60.80;;;;;;4981893;28;20026;-80
2021/05/12 00:57:20;;;;;;;0.57;0.17;;;15.50;61.20;;;;;;4992031;28;20054;-80
2021/05/12 00:59:47;;;;;;;0.50;0.03;;;15.40;61.00;;;;;;4977171;28;20484;-81
2021/05/12 01:02:15;;;;;;;0.43;0.10;;;15.40;61.10;;;;;;4972539;28;20030;-81
2021/05/12 01:04:41;;;;;;;1.47;0.30;;;15.40;61.10;;;;;;4973946;28;20388;-81
2021/05/12 01:07:07;;;;;;;1.83;0.20;;;15.50;61.10;;;;;;4973678;28;20035;-81
2021/05/12 01:09:33;;;;;;;3.30;0.20;;;15.50;61.10;;;;;;4975944;28;20041;-81
2021/05/12 01:11:59;;;;;;;0.63;0.10;;;15.40;60.90;;;;;;4994385;28;20035;-81
2021/05/12 01:14:25;;;;;;;1.73;0.30;;;15.40;60.90;;;;;;4973457;28;20081;-81
2021/05/12 01:16:51;;;;;;;1.03;0.33;;;15.40;60.90;;;;;;4973481;28;20027;-80
2021/05/12 01:19:17;;;;;;;1.50;0.10;;;15.40;60.80;;;;;;4977061;28;20153;-80
2021/05/12 01:21:44;;;;;;;2.27;0.40;;;15.30;60.90;;;;;;4988469;28;20486;-81
2021/05/12 01:24:10;;;;;;;2.27;0.33;;;15.30;60.90;;;;;;4979330;28;20027;-81
2021/05/12 01:26:36;;;;;;;0.50;0.10;;;15.30;60.90;;;;;;5005686;28;20498;-81
2021/05/12 01:29:04;;;;;;;2.27;0.20;;;15.20;61.00;;;;;;4983605;28;20118;-81
2021/05/12 01:31:33;;;;;;;5.03;0.23;;;15.20;61.10;;;;;;4999145;28;20022;-80
2021/05/12 01:34:03;;;;;;;1.87;0.20;;;15.10;60.90;;;;;;5000071;28;20035;-80
2021/05/12 01:36:29;;;;;;;2.10;0.10;;;15.10;61.20;;;;;;4973482;28;20394;-81
2021/05/12 01:38:56;;;;;;;0.13;0.10;;;15.10;61.40;;;;;;4977772;28;20061;-81
2021/05/12 01:41:23;;;;;;;0.97;0.20;;;15.10;61.40;;;;;;4994612;28;20081;-81
2021/05/12 01:43:50;;;;;;;1.50;0.10;;;15.10;61.30;;;;;;4991013;28;20034;-81
2021/05/12 01:46:16;;;;;;;4.40;0.20;;;15.10;61.40;;;;;;4981263;28;20030;-80
2021/05/12 01:48:42;;;;;;;0.43;0.10;;;15.10;61.40;;;;;;4989267;28;20488;-80
2021/05/12 01:51:10;;;;;;;1.47;0.10;;;15.10;61.30;;;;;;4992578;28;20074;-80
2021/05/12 01:53:36;;;;;;;1.60;0.10;;;15.10;61.10;;;;;;4979628;28;20027;-80
2021/05/12 01:56:02;;;;;;;1.70;0.30;;;15.10;61.00;;;;;;4977084;28;20149;-80
2021/05/12 01:58:28;;;;;;;1.27;0.20;;;15.10;60.90;;;;;;4996925;28;20038;-80
2021/05/12 02:00:56;;;;;;;0.17;0.10;;;15.00;60.90;;;;;;4985173;28;20023;-80
2021/05/12 02:03:22;;;;;;;3.50;0.40;;;15.00;61.10;;;;;;4998275;28;20145;-80
2021/05/12 02:05:49;;;;;;;1.03;0.20;;;14.90;61.20;;;;;;4989992;28;20030;-80
2021/05/12 02:08:17;;;;;;;0.13;0.10;;;14.90;61.40;;;;;;4981866;28;20023;-80
2021/05/12 02:10:45;;;;;;;1.80;0.10;;;14.80;61.60;;;;;;4977538;28;20456;-80
2021/05/12 02:13:12;;;;;;;0.77;0.00;;;14.80;61.50;;;;;;4977517;28;20054;-80
2021/05/12 02:15:38;;;;;;;1.10;0.20;;;14.80;61.50;;;;;;4976972;28;20084;-80
2021/05/12 02:18:04;;;;;;;1.13;0.20;;;14.80;61.50;;;;;;4994868;28;20060;-80
2021/05/12 02:20:32;;;;;;;1.80;0.20;;;14.80;61.70;;;;;;4992207;28;20034;-80
2021/05/12 02:23:03;;;;;;;0.87;0.10;;;14.70;61.70;;;;;;4985684;28;20127;-80
2021/05/12 02:25:29;;;;;;;2.37;0.30;;;14.70;61.80;;;;;;4992107;28;20345;-80
2021/05/12 02:27:56;;;;;;;0.13;0.00;;;14.70;61.90;;;;;;4990903;28;20027;-80
2021/05/12 02:30:22;;;;;;;1.10;0.10;;;14.70;62.10;;;;;;5011355;28;20101;-80
2021/05/12 02:32:48;;;;;;;1.33;0.30;;;14.70;62.20;;;;;;4992156;28;20058;-80
2021/05/12 02:35:15;;;;;;;29.93;15.20;;;14.70;62.30;;;;;;4976997;28;20055;-80
2021/05/12 02:37:42;;;;;;;9.13;4.70;;;14.70;62.30;;;;;;4994155;28;20033;-80
2021/05/12 02:40:10;;;;;;;2.40;1.23;;;14.70;62.50;;;;;;4993443;28;20576;-80
2021/05/12 02:42:36;;;;;;;1.77;0.30;;;14.70;62.20;;;;;;5006357;28;20034;-80
2021/05/12 02:45:07;;;;;;;1.23;0.30;;;14.70;62.60;;;;;;4994917;28;20102;-80
2021/05/12 02:47:33;;;;;;;1.80;0.37;;;14.60;62.30;;;;;;5003838;28;20575;-80
2021/05/12 02:49:59;;;;;;;2.87;0.90;;;14.60;62.30;;;;;;4992593;28;20034;-80
2021/05/12 02:52:25;;;;;;;2.17;0.40;;;14.60;62.40;;;;;;5001062;28;20435;-81
2021/05/12 02:54:51;;;;;;;1.13;0.30;;;14.60;62.40;;;;;;5006894;28;20058;-80
2021/05/12 02:57:17;;;;;;;0.20;0.10;;;14.60;62.30;;;;;;4974868;28;20042;-80
2021/05/12 02:59:43;;;;;;;0.27;0.10;;;14.50;62.30;;;;;;4986064;28;20026;-80
2021/05/12 03:02:09;;;;;;;3.87;0.47;;;14.50;62.50;;;;;;5002317;28;20081;-80
2021/05/12 03:04:35;;;;;;;0.87;0.10;;;14.50;62.40;;;;;;4983450;28;20395;-80
2021/05/12 03:07:01;;;;;;;0.73;0.10;;;14.50;62.30;;;;;;5002634;28;20052;-80
2021/05/12 03:09:27;;;;;;;0.80;0.10;;;14.50;62.10;;;;;;4992033;28;20027;-80
2021/05/12 03:11:53;;;;;;;1999.90;863.17;;;14.50;62.20;;;;;;4998854;28;20080;-80
2021/05/12 03:14:19;;;;;;;1022.47;488.40;;;14.40;62.30;;;;;;4977799;28;20026;-80
2021/05/12 03:16:45;;;;;;;229.17;89.70;;;14.40;62.40;;;;;;5006579;28;20113;-79
2021/05/12 03:19:11;;;;;;;21.63;8.33;;;14.40;62.60;;;;;;4986235;28;20058;-79
2021/05/12 03:21:38;;;;;;;5.47;2.40;;;14.30;62.80;;;;;;4990544;28;20118;-80
2021/05/12 03:24:04;;;;;;;2.07;0.90;;;14.30;63.10;;;;;;4991914;28;20511;-80
2021/05/12 03:26:31;;;;;;;2.73;0.67;;;14.20;63.20;;;;;;4975889;28;20061;-80
2021/05/12 03:28:56;;;;;;;1.73;0.43;;;14.10;63.50;;;;;;4987458;28;20027;-80
2021/05/12 03:31:23;;;;;;;1.60;0.20;;;14.00;63.60;;;;;;4979390;28;20061;-80
2021/05/12 03:33:50;;;;;;;3.23;0.40;;;14.00;64.40;;;;;;4966155;28;20042;-80
2021/05/12 03:36:16;;;;;;;0.43;0.10;;;14.10;63.90;;;;;;4980914;28;20049;-80
2021/05/12 03:38:42;;;;;;;1.87;0.30;;;14.10;63.70;;;;;;5003088;28;20042;-80
2021/05/12 03:41:08;;;;;;;0.37;0.10;;;14.00;63.80;;;;;;4992347;28;20030;-80
2021/05/12 03:43:34;;;;;;;2.90;0.40;;;14.00;63.90;;;;;;4980896;28;20027;-80
2021/05/12 03:46:03;;;;;;;1.13;0.30;;;14.00;64.00;;;;;;4984396;28;20026;-80
2021/05/12 03:48:31;;;;;;;1.40;0.20;;;14.00;64.20;;;;;;4973697;28;20022;-80
2021/05/12 03:50:57;;;;;;;0.97;0.20;;;13.90;64.10;;;;;;4987909;28;20031;-80
2021/05/12 03:53:24;;;;;;;1.30;0.17;;;13.90;64.40;;;;;;4990924;28;20534;-80
2021/05/12 03:55:50;;;;;;;0.40;0.10;;;13.90;64.50;;;;;;4981206;28;20034;-79
2021/05/12 03:58:15;;;;;;;0.73;0.20;;;13.90;64.80;;;;;;4996647;28;20038;-80
2021/05/12 04:00:41;;;;;;;1.83;0.10;;;13.90;64.50;;;;;;4975107;28;20030;-80
2021/05/12 04:03:07;;;;;;;0.63;0.03;;;13.90;64.50;;;;;;4982286;28;20030;-80
2021/05/12 04:05:33;;;;;;;0.40;0.20;;;13.90;64.80;;;;;;4974999;28;20018;-80
2021/05/12 04:07:59;;;;;;;2.20;0.20;;;13.90;64.70;;;;;;4976494;28;20495;-80
2021/05/12 04:10:24;;;;;;;0.97;0.20;;;14.00;64.50;;;;;;4993998;28;20419;-80
2021/05/12 04:12:50;;;;;;;2.27;0.30;;;14.10;64.30;;;;;;4977391;28;20034;-80
2021/05/12 04:15:16;;;;;;;1.43;0.17;;;14.10;64.30;;;;;;4974005;28;20050;-80
2021/05/12 04:17:42;;;;;;;1.90;0.10;;;14.10;64.40;;;;;;4985072;28;20105;-80
2021/05/12 04:20:11;;;;;;;1.03;0.20;;;14.00;64.30;;;;;;4985791;28;20479;-80
2021/05/12 04:22:38;;;;;;;1.13;0.13;;;14.00;64.30;;;;;;4974421;28;20027;-80
2021/05/12 04:25:06;;;;;;;0.70;0.20;;;14.00;64.50;;;;;;4974374;28;20022;-80
2021/05/12 04:27:31;;;;;;;1.23;0.40;;;14.00;64.70;;;;;;4975931;28;20397;-80
2021/05/12 04:29:57;;;;;;;1.67;0.60;;;14.00;64.30;;;;;;4980248;28;20034;-80
2021/05/12 04:32:23;;;;;;;0.90;0.40;;;14.00;64.40;;;;;;4991987;28;20464;-80
2021/05/12 04:34:49;;;;;;;6.40;2.47;;;13.90;64.60;;;;;;4973232;28;20480;-80
2021/05/12 04:37:15;;;;;;;1.50;0.50;;;13.90;64.70;;;;;;4973117;28;20038;-80
2021/05/12 04:39:40;;;;;;;4.13;2.23;;;13.90;64.90;;;;;;4976248;28;20046;-80
2021/05/12 04:42:06;;;;;;;2.77;1.03;;;13.90;64.70;;;;;;4992463;28;20026;-80
2021/05/12 04:44:32;;;;;;;2.70;0.97;;;13.90;64.40;;;;;;4984305;28;20023;-80
2021/05/12 04:46:58;;;;;;;1.50;0.60;;;14.00;64.80;;;;;;4986181;28;20033;-80
2021/05/12 04:49:24;;;;;;;0.40;0.30;;;13.90;64.80;;;;;;4991795;28;20026;-80
2021/05/12 04:51:49;;;;;;;0.37;0.20;;;13.90;64.70;;;;;;4988470;28;20034;-80
2021/05/12 04:54:15;;;;;;;0.80;0.30;;;13.90;64.70;;;;;;4990108;28;20031;-80
2021/05/12 04:56:42;;;;;;;1.50;0.30;;;13.90;64.30;;;;;;4980311;28;20049;-80
2021/05/12 04:59:08;;;;;;;0.13;0.13;;;13.90;64.00;;;;;;4990146;28;20026;-80
2021/05/12 05:01:34;;;;;;;0.67;0.27;;;13.90;63.90;;;;;;4997772;28;20107;-80
2021/05/12 05:04:00;;;;;;;0.83;0.30;;;13.90;64.10;;;;;;4988427;28;20561;-80
2021/05/12 05:06:27;;;;;;;1.90;0.70;;;13.90;64.20;;;;;;4972360;28;20105;-80
2021/05/12 05:08:53;;;;;;;2.33;0.80;;;13.90;64.40;;;;;;4989235;28;20348;-80
2021/05/12 05:11:19;;;;;;;1.70;0.50;;;14.00;64.60;;;;;;4987591;28;20037;-80
2021/05/12 05:13:44;;;;;;;2.10;0.60;;;13.90;64.80;;;;;;5003481;28;20031;-80
2021/05/12 05:16:11;;;;;;;3.20;0.60;;;13.90;65.00;;;;;;4990839;28;20027;-80
2021/05/12 05:18:38;;;;;;;1.67;0.40;;;13.90;65.00;;;;;;4991037;28;20022;-80
2021/05/12 05:21:06;;;;;;;2.67;0.40;;;13.90;65.10;;;;;;5001288;28;20479;-81
2021/05/12 05:23:38;;;;;;;0.83;0.37;;;13.80;65.40;;;;;;4979293;28;20125;-80
2021/05/12 05:26:03;;;;;;;0.50;0.20;;;13.80;65.50;;;;;;4988874;28;20042;-80
2021/05/12 05:28:31;;;;;;;1.17;0.20;;;13.80;65.40;;;;;;4992568;28;20026;-80
2021/05/12 05:30:56;;;;;;;1.43;0.30;;;13.90;65.40;;;;;;4981488;28;20048;-80
2021/05/12 05:33:22;;;;;;;3.77;0.50;;;13.90;65.40;;;;;;4981666;28;20118;-80
2021/05/12 05:35:48;;;;;;;1.30;0.30;;;13.90;65.40;;;;;;4989407;28;20045;-80
2021/05/12 05:38:13;;;;;;;0.93;0.30;;;13.90;65.30;;;;;;4990068;28;20391;-80
2021/05/12 05:40:39;;;;;;;1.03;0.30;;;13.90;65.20;;;;;;4987162;28;20027;-80
2021/05/12 05:43:08;;;;;;;0.83;0.23;;;13.90;65.20;;;;;;4986236;28;20435;-80
2021/05/12 05:45:33;;;;;;;0.93;0.20;;;13.90;65.20;;;;;;5008069;28;20514;-80
2021/05/12 05:47:59;;;;;;;0.43;0.23;;;13.90;65.40;;;;;;4991688;28;20027;-80
2021/05/12 05:50:25;;;;;;;0.83;0.30;;;13.90;65.50;;;;;;4991639;28;20027;-80
2021/05/12 05:52:55;;;;;;;1.73;0.20;;;13.90;65.20;;;;;;4976738;28;20027;-80
2021/05/12 05:55:22;;;;;;;1.03;0.30;;;13.90;65.40;;;;;;4991357;28;20030;-80
2021/05/12 05:57:51;;;;;;;2.40;0.20;;;14.00;65.30;;;;;;4995350;28;20121;-80
2021/05/12 06:00:18;;;;;;;0.43;0.20;;;14.00;65.30;;;;;;4979041;28;20033;-80
2021/05/12 06:02:45;;;;;;;0.63;0.30;;;14.00;65.20;;;;;;4989560;28;20442;-80
2021/05/12 06:05:11;;;;;;;4.57;0.50;;;14.10;65.30;;;;;;4972125;28;20064;-80
2021/05/12 06:07:40;;;;;;;0.83;0.20;;;14.10;65.20;;;;;;4990551;28;20332;-80
2021/05/12 06:10:08;;;;;;;0.97;0.13;;;14.10;65.00;;;;;;5002923;28;20022;-80
2021/05/12 06:12:34;;;;;;;1.73;0.50;;;14.10;64.80;;;;;;5006376;28;20057;-80
2021/05/12 06:15:00;;;;;;;1.43;0.40;;;14.10;64.60;;;;;;4992798;28;20117;-80
2021/05/12 06:17:26;;;;;;;1.90;0.70;;;14.10;65.10;;;;;;4986576;28;20042;-80
2021/05/12 06:19:53;;;;;;;1.57;0.60;;;14.10;65.10;;;;;;4988165;28;20395;-80
2021/05/12 06:22:18;;;;;;;0.80;0.30;;;14.10;65.00;;;;;;4975276;28;20059;-80
2021/05/12 06:24:44;;;;;;;1.60;0.30;;;14.10;65.10;;;;;;4984820;28;20549;-80
2021/05/12 06:27:10;;;;;;;1.57;0.40;;;14.00;65.30;;;;;;4990553;28;20029;-81
2021/05/12 06:29:40;;;;;;;1.67;0.60;;;14.10;65.20;;;;;;4990999;28;20034;-80
2021/05/12 06:32:07;;;;;;;0.97;0.50;;;14.10;65.10;;;;;;4985386;28;20026;-81
2021/05/12 06:34:40;;;;;;;1.93;0.60;;;14.20;65.10;;;;;;5002460;28;20055;-81
2021/05/12 06:37:06;;;;;;;0.70;0.33;;;14.20;65.00;;;;;;5018348;28;20026;-80
2021/05/12 06:39:32;;;;;;;0.70;0.43;;;14.30;65.10;;;;;;4999893;28;20117;-80
2021/05/12 06:41:57;;;;;;;1.93;0.80;;;14.20;65.10;;;;;;5003412;28;20026;-80
2021/05/12 06:44:24;;;;;;;1.30;0.70;;;14.30;65.00;;;;;;4993455;28;21038;-80
2021/05/12 06:46:51;;;;;;;1.30;0.70;;;14.20;65.10;;;;;;4995697;28;20037;-81
2021/05/12 06:49:17;;;;;;;1.13;0.60;;;14.20;65.40;;;;;;4976250;28;20495;-80
2021/05/12 06:51:43;;;;;;;0.93;0.60;;;14.20;65.60;;;;;;5000950;28;20022;-80
2021/05/12 06:54:09;;;;;;;1.77;0.67;;;14.30;65.50;;;;;;4980988;28;20031;-80
2021/05/12 06:56:35;;;;;;;1.13;0.70;;;14.30;65.50;;;;;;5006458;28;20102;-80
2021/05/12 06:59:00;;;;;;;1.97;0.60;;;14.30;65.60;;;;;;4984087;28;20106;-81
2021/05/12 07:01:26;;;;;;;2.80;0.87;;;14.30;65.30;;;;;;4997135;28;20084;-81
2021/05/12 07:03:52;;;;;;;2.47;0.70;;;14.30;65.00;;;;;;4994922;28;20380;-80
2021/05/12 07:06:18;;;;;;;1.10;0.57;;;14.30;65.10;;;;;;4982582;28;20034;-80
2021/05/12 07:08:48;;;;;;;1.63;0.57;;;14.30;65.10;;;;;;4978250;28;20018;-80
2021/05/12 07:11:13;;;;;;;2.50;0.70;;;14.20;65.10;;;;;;4993633;28;20459;-80
2021/05/12 07:13:39;;;;;;;2.23;0.70;;;14.30;65.00;;;;;;4979170;28;20023;-80
2021/05/12 07:16:07;;;;;;;3.70;0.40;;;14.20;64.90;;;;;;4980223;28;20033;-80
2021/05/12 07:18:33;;;;;;;1.43;0.60;;;14.30;64.90;;;;;;4999115;28;20030;-80
2021/05/12 07:20:59;;;;;;;2.90;0.70;;;14.20;64.90;;;;;;4981597;28;20031;-81
2021/05/12 07:23:27;;;;;;;2.40;0.67;;;14.20;65.30;;;;;;4990961;28;20108;-81
2021/05/12 07:25:55;;;;;;;1.73;0.60;;;14.20;65.20;;;;;;4995347;28;20415;-81
2021/05/12 07:28:22;;;;;;;4.40;0.60;;;14.20;65.00;;;;;;5001726;28;20038;-81
2021/05/12 07:30:48;;;;;;;1.90;0.60;;;14.10;64.90;;;;;;4995737;28;20073;-81
2021/05/12 07:33:14;;;;;;;3.53;0.70;;;14.10;64.90;;;;;;4991517;28;20046;-81
2021/05/12 07:35:40;;;;;;;1.37;0.90;;;14.20;64.70;;;;;;5000539;28;20034;-81
2021/05/12 07:38:06;;;;;;;4.03;1.00;;;14.10;64.70;;;;;;5007049;28;20022;-81
2021/05/12 07:40:34;;;;;;;2.03;0.90;;;14.10;65.10;;;;;;4978293;28;20037;-81
2021/05/12 07:43:08;;;;;;;1.60;1.20;;;14.20;65.20;;;;;;4997348;28;20490;-81
2021/05/12 07:45:36;;;;;;;2.87;1.33;;;14.20;65.30;;;;;;4995466;28;20053;-81
2021/05/12 07:48:03;;;;;;;2.30;1.50;;;14.20;65.40;;;;;;5005723;28;20037;-81
2021/05/12 07:50:29;;;;;;;2.47;1.80;;;14.20;65.50;;;;;;4998007;28;20751;-81
2021/05/12 07:52:55;;;;;;;2.70;1.33;;;14.20;65.70;;;;;;4994247;28;20034;-80
2021/05/12 07:55:20;;;;;;;1.63;1.10;;;14.20;65.70;;;;;;4996556;28;20092;-81
2021/05/12 07:57:46;;;;;;;1.80;1.20;;;14.30;65.50;;;;;;4980376;28;20133;-81
2021/05/12 08:00:13;;;;;;;2.33;1.17;;;14.30;65.30;;;;;;4992949;28;20048;-81
2021/05/12 08:02:39;;;;;;;1.90;1.20;;;14.30;65.20;;;;;;5012953;28;20026;-81
2021/05/12 08:05:05;;;;;;;2.47;1.30;;;14.30;65.50;;;;;;5007353;28;20022;-80
2021/05/12 08:07:33;;;;;;;3.07;1.43;;;14.30;65.70;;;;;;5005733;28;20022;-81
2021/05/12 08:09:58;;;;;;;2.77;1.37;;;14.30;65.80;;;;;;4995238;28;20034;-81
2021/05/12 08:12:24;;;;;;;5.27;0.97;;;14.30;65.90;;;;;;4996041;28;20045;-81
2021/05/12 08:14:50;;;;;;;2.97;1.03;;;14.20;66.10;;;;;;5000494;28;21071;-81
2021/05/12 08:17:16;;;;;;;2.57;0.80;;;14.30;66.10;;;;;;4997313;28;20027;-81
2021/05/12 08:19:41;;;;;;;9.97;1.40;;;14.20;65.80;;;;;;4992991;28;20030;-81
2021/05/12 08:22:08;;;;;;;3.77;0.90;;;14.20;66.20;;;;;;5014586;28;20046;-81
2021/05/12 08:24:34;;;;;;;4.40;1.30;;;14.40;66.20;;;;;;5004302;28;20108;-81
2021/05/12 08:27:05;;;;;;;3.03;1.20;;;14.30;66.20;;;;;;4991413;28;20058;-81
2021/05/12 08:29:31;;;;;;;4.43;0.83;;;14.40;66.30;;;;;;4997554;28;20026;-81
2021/05/12 08:31:58;;;;;;;3.77;1.00;;;14.40;66.10;;;;;;5007973;28;20038;-81
2021/05/12 08:34:26;;;;;;;11.70;1.00;;;14.40;65.90;;;;;;4990727;28;20035;-81
2021/05/12 08:36:53;;;;;;;2.77;0.90;;;14.40;65.80;;;;;;4990461;28;20037;-81
2021/05/12 08:39:19;;;;;;;1.77;0.87;;;14.40;65.70;;;;;;5002997;28;20064;-81
2021/05/12 08:41:47;;;;;;;1.67;0.87;;;14.40;65.50;;;;;;4990647;28;20039;-81
2021/05/12 08:44:13;;;;;;;6.57;1.30;;;14.40;65.90;;;;;;4988938;28;20030;-81
2021/05/12 08:46:41;;;;;;;3.90;1.00;;;14.50;66.20;;;;;;4989766;28;20054;-81
2021/05/12 08:49:08;;;;;;;2.27;1.40;;;14.50;66.00;;;;;;4984805;28;20026;-81
2021/05/12 08:51:34;;;;;;;4.10;1.43;;;14.50;65.90;;;;;;5012749;28;20040;-81
2021/05/12 08:54:00;;;;;;;4.23;1.40;;;14.50;65.80;;;;;;4993004;28;20043;-81
2021/05/12 08:56:26;;;;;;;3.17;1.13;;;14.40;65.70;;;;;;4995443;28;20394;-81
2021/05/12 08:58:52;;;;;;;2.53;1.10;;;14.40;65.70;;;;;;4996146;28;20057;-81
2021/05/12 09:01:19;;;;;;;2.53;1.10;;;14.30;65.20;;;;;;4991608;28;20073;-81
2021/05/12 09:03:45;;;;;;;1.77;1.07;;;14.30;65.20;;;;;;4996043;28;20054;-81
2021/05/12 09:06:13;;;;;;;1.83;1.07;;;14.30;65.40;;;;;;4986562;28;20026;-80
2021/05/12 09:08:41;;;;;;;1.80;1.10;;;14.30;65.60;;;;;;4986336;28;20057;-81
2021/05/12 09:11:06;;;;;;;1.83;0.90;;;14.30;65.70;;;;;;4999908;28;20030;-81
2021/05/12 09:13:39;;;;;;;2.00;1.17;;;14.30;65.70;;;;;;4994945;28;20039;-81
2021/05/12 09:16:24;;;;;;;;;;;14.30;66.20;;;;;;4987909;28;20034;-86
2021/05/12 09:19:15;;;;;;;4.80;1.67;;;14.40;66.10;;;;;;4994454;28;20287;-74
2021/05/12 09:22:01;;;;;;;2.43;1.20;;;14.40;65.60;;;;;;4986730;28;20022;-80
2021/05/12 09:29:23;;;;;;;1.60;1.10;;;14.00;64.40;;;;;;5116300;27;20848;-74
2021/05/12 09:31:49;;;;;;;2.47;0.93;;;14.50;65.20;;;;;;5097889;28;20399;-82
2021/05/12 09:34:16;;;;;;;1.97;1.20;;;14.50;65.60;;;;;;5090844;28;20032;-79
2021/05/12 09:36:41;;;;;;;4.40;1.20;;;14.60;65.60;;;;;;5091345;28;20464;-79
2021/05/12 09:39:14;;;;;;;4.80;1.63;;;14.70;65.40;;;;;;5086876;28;20086;-83
2021/05/12 09:41:42;;;;;;;0.90;0.60;;;14.80;64.90;;;;;;5106585;28;20095;-88
2021/05/12 09:44:09;;;;;;;2.17;0.83;;;14.80;64.50;;;;;;5087865;28;20487;-81
2021/05/12 09:46:40;;;;;;;0.97;0.60;;;14.80;64.40;;;;;;5081094;28;20115;-82
2021/05/12 09:49:14;;;;;;;0.90;0.60;;;14.90;64.60;;;;;;5105416;28;20111;-82
2021/05/12 09:51:44;;;;;;;1.17;0.60;;;15.00;64.40;;;;;;5107032;28;20107;-87
2021/05/12 09:54:18;;;;;;;1.10;0.70;;;15.20;63.80;;;;;;5107214;28;20474;-84
2021/05/12 09:56:51;;;;;;;3.53;0.50;;;15.10;63.50;;;;;;5089744;28;20028;-82
2021/05/12 09:59:43;;;;;;;2.50;0.60;;;15.20;63.20;;;;;;5109454;28;20042;-81
2021/05/12 10:02:12;;;;;;;2.23;0.60;;;15.30;63.00;;;;;;5082751;28;20036;-82
2021/05/12 10:04:40;;;;;;;0.40;0.40;;;15.40;62.80;;;;;;5088584;28;20024;-82
2021/05/12 10:07:20;;;;;;;0.60;0.40;;;15.40;62.40;;;;;;5098982;28;22355;-81
2021/05/12 10:09:49;;;;;;;3.27;0.40;;;15.40;62.20;;;;;;5104300;28;20020;-82
2021/05/12 10:12:17;;;;;;;2.20;0.37;;;15.40;62.20;;;;;;5103742;28;20028;-82
2021/05/12 10:14:45;;;;;;;0.67;0.50;;;15.40;61.60;;;;;;5085922;28;20040;-82
2021/05/12 10:17:14;;;;;;;1.73;0.50;;;15.30;61.40;;;;;;5107354;28;20084;-81
2021/05/12 10:19:40;;;;;;;4.13;1.00;;;15.30;62.00;;;;;;5087765;28;20090;-82
2021/05/12 10:22:07;;;;;;;1.57;0.73;;;15.30;62.20;;;;;;5108198;28;20032;-82
2021/05/12 10:24:35;;;;;;;2.20;1.33;;;15.20;62.10;;;;;;5079216;28;20119;-82
2021/05/12 10:27:09;;;;;;;3.33;1.67;;;15.10;62.30;;;;;;5107004;28;20035;-82
2021/05/12 10:29:37;;;;;;;1.97;1.00;;;15.00;62.90;;;;;;5085522;28;20071;-82
2021/05/12 10:32:15;;;;;;;2.30;1.00;;;15.10;63.10;;;;;;5109744;28;20107;-81
2021/05/12 10:34:41;;;;;;;3.53;1.80;;;15.20;63.10;;;;;;5106436;28;20099;-80
2021/05/12 10:37:39;;;;;;;2.83;1.40;;;15.20;62.70;;;;;;5077894;28;20139;-81
2021/05/12 10:40:21;;;;;;;1.47;0.90;;;15.20;62.60;;;;;;5065102;28;20131;-81
2021/05/12 10:42:56;;;;;;;2.38;1.35;;;15.10;62.60;;;;;;5072346;28;20122;-81
2021/05/12 10:46:29;;;;;;;2.63;1.63;;;15.20;62.70;;;;;;5093067;28;20031;-82
2021/05/12 10:48:53;;;;;;;1.70;1.30;;;15.20;62.90;;;;;;5076808;28;20039;-82
2021/05/12 10:51:19;;;;;;;3.57;1.40;;;15.20;62.90;;;;;;5090156;28;20021;-81
2021/05/12 10:53:47;;;;;;;1.67;1.20;;;15.20;63.20;;;;;;5087117;28;20111;-82
2021/05/12 10:56:14;;;;;;;3.90;1.60;;;15.30;63.30;;;;;;5071996;28;20484;-81
2021/05/12 10:58:47;;;;;;;2.23;1.20;;;15.30;63.50;;;;;;5071474;28;20030;-80
2021/05/12 11:01:13;;;;;;;;;;;15.30;63.40;;;;;;5074852;28;20048;-81
2021/05/12 11:03:51;;;;;;;2.07;1.40;;;15.40;63.30;;;;;;5073787;28;20017;-82
2021/05/12 11:06:17;;;;;;;4.50;1.80;;;15.40;63.20;;;;;;5080482;28;20104;-82
2021/05/12 11:09:09;;;;;;;3.83;1.57;;;15.40;63.30;;;;;;5063414;28;20077;-82
2021/05/12 11:11:38;;;;;;;4.20;1.50;;;15.40;63.40;;;;;;5061933;28;20063;-82
2021/05/12 11:14:35;;;;;;;4.70;2.00;;;15.40;63.50;;;;;;5082680;28;20016;-81
2021/05/12 11:17:12;;;;;;;3.57;1.83;;;15.50;63.80;;;;;;5091023;28;20375;-81
2021/05/12 11:19:46;;;;;;;2.93;1.50;;;15.60;63.60;;;;;;5093695;28;20919;-82
2021/05/12 11:33:36;;;;;;;1.17;0.88;;;15.40;62.80;;;;;;5073345;28;20526;-81
2021/05/12 11:38:30;;;;;;;4.97;2.73;;;15.50;63.00;;;;;;5078404;28;20022;-82
2021/05/12 11:41:17;;;;;;;8.30;4.00;;;15.50;63.40;;;;;;5069840;28;20052;-82
2021/05/12 11:43:56;;;;;;;7.50;4.00;;;15.60;63.10;;;;;;5047938;28;20056;-82
2021/05/12 11:46:23;;;;;;;6.57;4.20;;;15.50;62.80;;;;;;5051842;28;20055;-82
2021/05/12 11:48:50;;;;;;;3.70;2.37;;;15.50;63.00;;;;;;5054560;28;20485;-81
2021/05/12 11:51:38;;;;;;;6.07;1.63;;;15.50;63.30;;;;;;5071542;28;20020;-83
2021/05/12 11:54:21;;;;;;;3.43;1.70;;;15.60;63.30;;;;;;5052748;28;20418;-82
2021/05/12 11:56:47;;;;;;;;;;;15.70;64.00;;;;;;5059052;28;20107;-82
2021/05/12 11:59:29;;;;;;;7.07;2.77;;;15.80;63.30;;;;;;5066272;28;19904;-82
2021/05/12 12:02:09;;;;;;;3.33;1.60;;;15.80;63.40;;;;;;5071686;28;20326;-82
2021/05/12 12:04:54;;;;;;;2.90;1.40;;;15.90;63.50;;;;;;5047543;28;20033;-82
2021/05/12 12:07:20;;;;;;;4.13;1.67;;;15.80;63.50;;;;;;5045403;28;20032;-82
2021/05/12 12:09:46;;;;;;;2.03;1.50;;;15.80;63.60;;;;;;5057164;28;20028;-82
2021/05/12 12:12:12;;;;;;;2.70;1.63;;;15.90;63.70;;;;;;5072405;28;20079;-82
2021/05/12 12:14:37;;;;;;;2.73;1.67;;;15.90;63.50;;;;;;5068084;28;20028;-82
2021/05/12 12:17:11;;;;;;;2.77;1.17;;;16.00;63.70;;;;;;5071269;28;20124;-82
2021/05/12 12:19:37;;;;;;;2.07;1.50;;;16.00;64.20;;;;;;5059392;28;20057;-82
2021/05/12 12:22:03;;;;;;;4.30;1.67;;;16.00;63.90;;;;;;5054602;28;20028;-82
2021/05/12 12:24:30;;;;;;;1.73;1.00;;;16.00;63.90;;;;;;5073016;28;20063;-82
2021/05/12 12:26:58;;;;;;;2.73;1.30;;;16.00;63.70;;;;;;5068584;28;20024;-82
2021/05/12 12:29:27;;;;;;;1.90;0.80;;;16.00;63.80;;;;;;5072628;28;20043;-82
2021/05/12 12:31:55;;;;;;;2.17;1.30;;;16.00;63.70;;;;;;5073200;28;20024;-82
2021/05/12 12:34:24;;;;;;;2.37;1.67;;;16.00;63.70;;;;;;5093123;28;20024;-82
2021/05/12 12:37:14;;;;;;;2.30;1.30;;;16.20;63.60;;;;;;5078258;28;20024;-82
2021/05/12 12:39:45;;;;;;;1.97;1.10;;;16.20;63.20;;;;;;5072674;28;20143;-80
2021/05/12 12:42:12;;;;;;;2.03;0.87;;;16.30;63.00;;;;;;5079622;28;20028;-82
2021/05/12 12:44:40;;;;;;;2.70;1.30;;;16.30;62.90;;;;;;5075173;28;20078;-82
2021/05/12 12:47:15;;;;;;;1.70;0.90;;;16.30;63.40;;;;;;5078429;28;20070;-82
2021/05/12 12:49:47;;;;;;;4.40;1.20;;;16.30;62.60;;;;;;5086855;28;20111;-81
2021/05/12 12:52:37;;;;;;;4.10;1.00;;;16.40;62.60;;;;;;5066877;28;20055;-82
2021/05/12 12:55:14;;;;;;;2.40;1.17;;;16.40;63.10;;;;;;5076166;28;20089;-82
2021/05/12 12:57:59;;;;;;;2.07;1.17;;;16.40;62.50;;;;;;5091890;28;20020;-81
2021/05/12 13:00:32;;;;;;;4.10;1.27;;;16.40;62.60;;;;;;5060806;28;20024;-82
2021/05/12 13:03:02;;;;;;;2.55;1.10;;;16.50;62.70;;;;;;5074322;28;20047;-82
2021/05/12 13:05:42;;;;;;;1.33;0.90;;;16.50;62.60;;;;;;5087557;28;20111;-82
2021/05/12 13:08:36;;;;;;;2.07;1.03;;;16.60;62.60;;;;;;5089480;28;20542;-81
2021/05/12 13:11:05;;;;;;;3.30;1.13;;;16.60;62.90;;;;;;5051194;28;20020;-82
2021/05/12 13:13:55;;;;;;;1.85;1.50;;;16.60;62.70;;;;;;5087742;28;20115;-82